Regal Princess — ZCEK6 — position and weather

sailwx.info

Track history (hours):
 
Tides and Currents Weather Stations Pressure Air Temp Water Temp Dewpoint Dewpoint Depression Visibility Wind Speed Wind Dir Waves Ship Positions

Regal Princess

Last reported at 2018-Jul-17 05:31 UTC. Time now 2018-Jul-17 05:38 UTC.
Position N 58°07' E 010°51'.

Length 330 m; draft 8.7 m.

Type: Passenger vessel. MMSI: 310674000.

Date/timePositionNaut miles runAvg speedWind from/ knotsBaromVisibWave heightAir tempDewpointWater temp
2018-Jul-17 05:31N 58°07' E 010°51'612.9
2018-Jul-17 05:01N 58°14' E 010°47'612.8
2018-Jul-17 04:30N 58°20' E 010°43'612.8
2018-Jul-17 04:01N 58°26' E 010°39'2128.5
2018-Jul-17 04:00N 58°24' E 010°36'815.7 040 / 141013.910.8 20.017.618.3
2018-Jul-17 03:31N 58°32' E 010°34'612.8
2018-Jul-17 03:01N 58°38' E 010°34'612.7
2018-Jul-17 02:31N 58°44' E 010°34'612.7
2018-Jul-17 02:01N 58°51' E 010°34'612.7
2018-Jul-17 01:31N 58°57' E 010°34'612.8
2018-Jul-17 01:01N 59°03' E 010°36'510.3
2018-Jul-17 00:30N 59°08' E 010°38'1716.8
2018-Jul-16 23:30N 59°25' E 010°33'816.8
2018-Jul-16 23:00N 59°33' E 010°37'714.7
2018-Jul-16 22:30N 59°41' E 010°37'611.5
2018-Jul-16 22:00N 59°46' E 010°34'815.5
2018-Jul-16 21:30N 59°53' E 010°40'2 4.7
2018-Jul-16 21:00N 59°54' E 010°44'0 0.0
2018-Jul-16 20:30N 59°54' E 010°44'0 0.0
2018-Jul-16 20:00N 59°54' E 010°44'0 0.0
2018-Jul-16 19:30N 59°54' E 010°44'0 0.0
2018-Jul-16 18:59N 59°54' E 010°44'0 0.0
2018-Jul-16 18:29N 59°54' E 010°44'0 0.0
2018-Jul-16 17:59N 59°54' E 010°44'0 0.0
2018-Jul-16 17:29N 59°54' E 010°44'0 0.0
2018-Jul-16 16:59N 59°54' E 010°44'0 0.0
2018-Jul-16 16:29N 59°54' E 010°44'0 0.0
2018-Jul-16 15:59N 59°54' E 010°44'0 0.0
2018-Jul-16 15:29N 59°54' E 010°44'0 0.0
2018-Jul-16 14:59N 59°54' E 010°44'0 0.0
2018-Jul-16 14:29N 59°54' E 010°44'0 0.0
2018-Jul-16 13:59N 59°54' E 010°44'0 0.0
2018-Jul-16 13:29N 59°54' E 010°44'0 0.0
2018-Jul-16 12:59N 59°54' E 010°44'0 0.0
2018-Jul-16 12:29N 59°54' E 010°44'0 0.0
2018-Jul-16 11:59N 59°54' E 010°44'0 0.0
2018-Jul-16 11:29N 59°54' E 010°44'0 0.0
2018-Jul-16 10:59N 59°54' E 010°44'0 0.0
2018-Jul-16 10:31N 59°54' E 010°44'0 0.0
2018-Jul-16 09:59N 59°54' E 010°44'0 0.0
2018-Jul-16 09:28N 59°54' E 010°44'0 0.0
2018-Jul-16 08:58N 59°54' E 010°44'0 0.0
2018-Jul-16 08:28N 59°54' E 010°44'0 0.0
2018-Jul-16 07:58N 59°54' E 010°44'0 0.0
2018-Jul-16 07:28N 59°54' E 010°44'2 3.5
2018-Jul-16 07:00N 59°54' E 010°41'612.4
2018-Jul-16 06:30N 59°48' E 010°35'611.9
2018-Jul-16 06:00N 59°42' E 010°36'611.5
2018-Jul-16 05:31N 59°37' E 010°38'918.1
2018-Jul-16 05:01N 59°28' E 010°34'918.2
2018-Jul-16 04:31N 59°19' E 010°36'918.6
2018-Jul-16 04:01N 59°10' E 010°39'713.7
2018-Jul-16 03:30N 59°03' E 010°34'815.0
2018-Jul-16 03:00N 58°56' E 010°34'917.9
2018-Jul-16 02:30N 58°47' E 010°35'918.1
2018-Jul-16 02:00N 58°38' E 010°35'917.6
2018-Jul-16 01:30N 58°29' E 010°37'917.8
2018-Jul-16 01:00N 58°21' E 010°41'918.7
2018-Jul-16 00:30N 58°12' E 010°46'1121.4
2018-Jul-16 00:00N 58°02' E 010°54'1121.2
2018-Jul-15 23:30N 57°52' E 011°01'1020.9
2018-Jul-15 23:00N 57°42' E 011°07'1020.6
2018-Jul-15 22:30N 57°34' E 011°18'1020.7
2018-Jul-15 22:00N 57°25' E 011°28'1020.6
2018-Jul-15 21:30N 57°15' E 011°35'1020.3
2018-Jul-15 21:00N 57°05' E 011°42'1020.3
2018-Jul-15 20:30N 56°56' E 011°48'815.6
2018-Jul-15 20:00N 56°48' E 011°48'939.6 310 / 91016.710.8 18.314.319.6
2018-Jul-15 19:46N 56°44' E 012°02'519.5
2018-Jul-15 19:30N 56°40' E 012°09'1019.1
2018-Jul-15 19:00N 56°32' E 012°17'1019.5
2018-Jul-15 18:28N 56°22' E 012°21'919.1
2018-Jul-15 18:00N 56°13' E 012°26'1019.2
2018-Jul-15 17:30N 56°05' E 012°36'816.7
2018-Jul-15 17:00N 55°58' E 012°42'917.1
2018-Jul-15 16:30N 55°49' E 012°44'713.1
2018-Jul-15 16:00N 55°43' E 012°39'1 2.0
2018-Jul-15 15:28N 55°43' E 012°37'0 0.0
2018-Jul-15 14:58N 55°43' E 012°37'0 0.0
2018-Jul-15 14:28N 55°43' E 012°37'0 0.0
2018-Jul-15 13:58N 55°43' E 012°37'0 0.0
2018-Jul-15 13:28N 55°43' E 012°37'0 0.0
2018-Jul-15 12:58N 55°43' E 012°37'0 0.0
2018-Jul-15 12:28N 55°43' E 012°37'0 0.0
2018-Jul-15 11:58N 55°43' E 012°37'0 0.0
2018-Jul-15 11:28N 55°43' E 012°37'0 0.0
2018-Jul-15 10:58N 55°43' E 012°37'0 0.0
2018-Jul-15 10:30N 55°43' E 012°37'0 0.0
2018-Jul-15 09:59N 55°43' E 012°37'0 0.0
2018-Jul-15 09:29N 55°43' E 012°37'0 0.0
2018-Jul-15 08:59N 55°43' E 012°37'0 0.0
2018-Jul-15 08:28N 55°43' E 012°37'0 0.0
2018-Jul-15 07:58N 55°43' E 012°37'0 0.0
2018-Jul-15 07:30N 55°43' E 012°37'0 0.0
2018-Jul-15 06:59N 55°43' E 012°37'0 0.0
2018-Jul-15 06:28N 55°43' E 012°37'0 0.0
2018-Jul-15 05:58N 55°43' E 012°37'0 0.0
2018-Jul-15 05:28N 55°43' E 012°37'0 0.0
2018-Jul-15 04:58N 55°43' E 012°37'0 0.0
2018-Jul-15 04:30N 55°43' E 012°37'0 0.0
2018-Jul-15 03:59N 55°43' E 012°37'0 0.0
2018-Jul-15 03:29N 55°43' E 012°37'0 0.1
2018-Jul-15 03:00N 55°43' E 012°37'1 1.3
2018-Jul-15 02:30N 55°43' E 012°38'612.3
2018-Jul-15 02:00N 55°49' E 012°43'816.7
2018-Jul-15 01:30N 55°57' E 012°42'816.4
2018-Jul-15 01:00N 56°04' E 012°37'1020.1
2018-Jul-15 00:30N 56°10' E 012°22'918.8
2018-Jul-15 00:00N 56°11' E 012°05'1019.9
2018-Jul-14 23:30N 56°08' E 011°48'1919.6
2018-Jul-14 22:32N 56°07' E 011°14'019.5
2018-Jul-14 22:30N 56°07' E 011°13'4117.3
2018-Jul-14 20:09N 55°28' E 010°57'319.1
2018-Jul-14 20:00N 55°25' E 010°60'917.2
2018-Jul-14 19:30N 55°17' E 011°04'917.3
2018-Jul-14 19:00N 55°08' E 011°03'918.9
2018-Jul-14 18:30N 54°59' E 011°01'815.2
2018-Jul-14 18:01N 54°53' E 010°53'815.0
2018-Jul-14 17:31N 54°45' E 010°53'713.9
2018-Jul-14 17:00N 54°40' E 010°60'816.9
2018-Jul-14 16:30N 54°36' E 011°13'1019.4
2018-Jul-14 16:00N 54°31' E 011°27'919.1
2018-Jul-14 15:30N 54°27' E 011°42'1018.6
2018-Jul-14 15:00N 54°26' E 011°59'1616.4
2018-Jul-14 14:01N 54°37' E 012°19'918.8
2018-Jul-14 13:30N 54°42' E 012°32'1819.0
2018-Jul-14 12:35N 54°51' E 012°59'319.9
2018-Jul-14 12:26N 54°52' E 013°04'820.0
2018-Jul-14 12:00N 54°55' E 013°18'2519.7
2018-Jul-14 10:44N 55°03' E 013°59'519.5
2018-Jul-14 10:30N 55°05' E 014°06'1020.5
2018-Jul-14 09:59N 55°14' E 014°17'1020.4
2018-Jul-14 09:30N 55°21' E 014°28'1020.6
2018-Jul-14 09:00N 55°28' E 014°42'1020.8
2018-Jul-14 08:31N 55°32' E 014°59'1020.4
2018-Jul-14 08:00N 55°37' E 015°14'1020.4
2018-Jul-14 07:30N 55°42' E 015°30'1020.5
2018-Jul-14 07:00N 55°48' E 015°45'1020.6
2018-Jul-14 06:30N 55°53' E 016°01'1020.7
2018-Jul-14 06:00N 55°58' E 016°17'1020.6
2018-Jul-14 05:30N 56°03' E 016°33'1020.5
2018-Jul-14 05:00N 56°10' E 016°47'1021.0
2018-Jul-14 04:30N 56°20' E 016°54'1121.1
2018-Jul-14 04:00N 56°29' E 017°02'1021.1
2018-Jul-14 03:30N 56°39' E 017°08'1121.4
2018-Jul-14 03:00N 56°50' E 017°13'1521.3
2018-Jul-14 02:19N 57°04' E 017°22'921.3
2018-Jul-14 01:54N 57°12' E 017°28'1820.4
2018-Jul-14 01:00N 57°30' E 017°36'723.2 330 / 71013.710.8 18.615.917.1
2018-Jul-14 00:41N 57°37' E 017°42'421.3
2018-Jul-14 00:29N 57°41' E 017°43'2120.9
2018-Jul-13 23:27N 57°59' E 018°05'1621.5
2018-Jul-13 22:42N 58°12' E 018°22'621.2
2018-Jul-13 22:27N 58°17' E 018°28'1521.3
2018-Jul-13 21:44N 58°29' E 018°44'621.2
2018-Jul-13 21:27N 58°34' E 018°51'921.1
2018-Jul-13 21:00N 58°42' E 019°02'1716.8
2018-Jul-13 20:00N 58°54' E 019°24'4023.0 360 / 81014.710.8 18.016.314.8
2018-Jul-13 18:15N 59°30' E 019°57'719.7
2018-Jul-13 17:52N 59°38' E 019°55'720.5
2018-Jul-13 17:30N 59°43' E 019°45'1019.2
2018-Jul-13 17:00N 59°47' E 019°28'815.8
2018-Jul-13 16:30N 59°44' E 019°13'917.2
2018-Jul-13 16:00N 59°40' E 018°58'5 9.8
2018-Jul-13 15:30N 59°37' E 018°50'612.1
2018-Jul-13 15:00N 59°34' E 018°40'9 9.2
2018-Jul-13 14:00N 59°28' E 018°26'4 8.3
2018-Jul-13 13:31N 59°24' E 018°26'2 4.8
2018-Jul-13 13:00N 59°22' E 018°23'510.2
2018-Jul-13 12:30N 59°21' E 018°14'3 5.8
2018-Jul-13 12:00N 59°21' E 018°08'0 0.0
2018-Jul-13 11:26N 59°21' E 018°08'0 0.0
2018-Jul-13 10:52N 59°21' E 018°08'0 0.0
2018-Jul-13 10:24N 59°21' E 018°08'0 0.0
2018-Jul-13 09:59N 59°21' E 018°08'0 0.0
2018-Jul-13 09:30N 59°21' E 018°08'0 0.0
2018-Jul-13 09:00N 59°21' E 018°08'0 0.0
2018-Jul-13 08:30N 59°21' E 018°08'0 0.0
2018-Jul-13 07:59N 59°21' E 018°08'0 0.0
2018-Jul-13 07:29N 59°21' E 018°08'0 0.0
2018-Jul-13 06:59N 59°21' E 018°08'0 0.0
2018-Jul-13 06:29N 59°21' E 018°08'0 0.0
2018-Jul-13 05:59N 59°21' E 018°08'0 0.0
2018-Jul-13 05:30N 59°21' E 018°08'0 0.2
2018-Jul-13 05:00N 59°21' E 018°08'2 4.6
2018-Jul-13 04:30N 59°20' E 018°12'611.1
2018-Jul-13 04:00N 59°22' E 018°23'3 5.0
2018-Jul-13 03:30N 59°24' E 018°26'4 8.7
2018-Jul-13 03:00N 59°28' E 018°26'510.5
2018-Jul-13 02:30N 59°32' E 018°34'510.5
2018-Jul-13 02:00N 59°35' E 018°43'612.0
2018-Jul-13 01:30N 59°38' E 018°52'6213.0
2018-Jul-12 20:44N 59°25' E 020°51'520.9
2018-Jul-12 20:30N 59°25' E 021°01'1020.7
2018-Jul-12 20:00N 59°25' E 021°21'2243.4
2018-Jul-12 20:00N 59°24' E 021°18'1224.6 170 / 81016.710.8 18.016.314.8
2018-Jul-12 19:30N 59°26' E 021°41'1020.8
2018-Jul-12 19:00N 59°26' E 022°02'1220.2
2018-Jul-12 18:26N 59°28' E 022°24'920.3
2018-Jul-12 18:00N 59°32' E 022°39'1020.9
2018-Jul-12 17:30N 59°34' E 022°60'1020.6
2018-Jul-12 17:00N 59°37' E 023°19'1121.0
2018-Jul-12 16:30N 59°41' E 023°39'1021.0
2018-Jul-12 16:00N 59°43' E 023°58'1121.1
2018-Jul-12 15:30N 59°46' E 024°19'1020.8
2018-Jul-12 15:00N 59°50' E 024°38'1020.7
2018-Jul-12 14:30N 59°56' E 024°55'815.3
2018-Jul-12 14:00N 60°03' E 024°54'611.6
2018-Jul-12 13:30N 60°09' E 024°55'0 0.2
2018-Jul-12 12:59N 60°09' E 024°55'0 0.0
2018-Jul-12 12:29N 60°09' E 024°55'0 0.0
2018-Jul-12 11:58N 60°09' E 024°55'0 0.0
2018-Jul-12 11:28N 60°09' E 024°55'0 0.0
2018-Jul-12 11:00N 60°09' E 024°55'0 0.0
2018-Jul-12 10:30N 60°09' E 024°55'0 0.0
2018-Jul-12 10:01N 60°09' E 024°55'0 0.0
2018-Jul-12 09:29N 60°09' E 024°55'0 0.0
2018-Jul-12 08:59N 60°09' E 024°55'0 0.0
2018-Jul-12 08:29N 60°09' E 024°55'0 0.0
2018-Jul-12 07:58N 60°09' E 024°55'0 0.0
2018-Jul-12 07:30N 60°09' E 024°55'0 0.0
2018-Jul-12 06:58N 60°09' E 024°55'0 0.0
2018-Jul-12 06:28N 60°09' E 024°55'0 0.0
2018-Jul-12 06:00N 60°09' E 024°55'0 0.0
2018-Jul-12 05:29N 60°09' E 024°55'0 0.0
2018-Jul-12 04:58N 60°09' E 024°55'0 0.0
2018-Jul-12 04:30N 60°09' E 024°55'0 0.0
2018-Jul-12 04:00N 60°09' E 024°55'0 0.1
2018-Jul-12 03:30N 60°09' E 024°55'2 4.2
2018-Jul-12 03:00N 60°07' E 024°54'714.0
2018-Jul-12 02:30N 60°00' E 024°57'612.8
2018-Jul-12 02:00N 59°57' E 025°09'714.4
2018-Jul-12 01:30N 59°56' E 025°23'714.5
2018-Jul-12 01:00N 59°54' E 025°37'816.6
2018-Jul-12 00:30N 59°56' E 025°53'816.8
2018-Jul-12 00:00N 59°58' E 026°09'916.8
2018-Jul-11 23:29N 60°00' E 026°26'816.4
2018-Jul-11 23:00N 60°01' E 026°42'917.2
2018-Jul-11 22:30N 59°60' E 026°59'816.5
2018-Jul-11 22:00N 60°03' E 027°14'815.8
2018-Jul-11 21:30N 60°07' E 027°28'917.3
2018-Jul-11 21:00N 60°12' E 027°43'815.5
2018-Jul-11 20:30N 60°11' E 027°58'816.5
2018-Jul-11 20:00N 60°08' E 028°14'3191.2
2018-Jul-11 20:00N 60°06' E 028°18'510.8 340 / 101018.910.8 19.012.415.2
2018-Jul-11 19:30N 60°04' E 028°28'916.3
2018-Jul-11 18:58N 60°03' E 028°45'716.1
2018-Jul-11 18:30N 60°02' E 029°00'816.1
2018-Jul-11 18:00N 60°02' E 029°16'1012.8
2018-Jul-11 17:14N 60°00' E 029°36'411.9
2018-Jul-11 16:52N 59°59' E 029°44'3 9.4
2018-Jul-11 16:30N 59°57' E 029°50'510.8
2018-Jul-11 16:00N 59°55' E 030°00'5 9.6
2018-Jul-11 15:30N 59°57' E 030°09'1 1.2
2018-Jul-11 14:37N 59°57' E 030°11'0 0.0
2018-Jul-11 14:21N 59°57' E 030°11'0 0.0
2018-Jul-11 13:51N 59°57' E 030°11'0 0.0
2018-Jul-11 13:27N 59°57' E 030°11'0 0.0
2018-Jul-11 12:49N 59°57' E 030°11'0 0.0
2018-Jul-11 12:30N 59°57' E 030°11'0 0.0
2018-Jul-11 12:00N 59°57' E 030°11'0 0.0
2018-Jul-11 11:30N 59°57' E 030°11'0 0.0
2018-Jul-11 10:59N 59°57' E 030°11'0 0.0
2018-Jul-11 10:19N 59°57' E 030°11'0 0.0
2018-Jul-11 09:33N 59°57' E 030°11'0 0.0
2018-Jul-11 09:15N 59°57' E 030°11'0 0.0
2018-Jul-11 08:30N 59°57' E 030°11'0 0.0
2018-Jul-11 07:55N 59°57' E 030°11'0 0.0
2018-Jul-11 06:50N 59°57' E 030°11'0 0.0
2018-Jul-11 04:38N 59°57' E 030°11'0 0.0
2018-Jul-11 04:27N 59°57' E 030°11'0 0.0
2018-Jul-11 03:54N 59°57' E 030°11'0 0.0
2018-Jul-11 03:30N 59°57' E 030°11'0 0.0
2018-Jul-11 02:58N 59°57' E 030°11'0 0.0
2018-Jul-11 02:29N 59°57' E 030°11'0 0.0
2018-Jul-11 02:00N 59°57' E 030°11'0 0.0
2018-Jul-11 01:29N 59°57' E 030°11'0 0.0
2018-Jul-11 00:53N 59°57' E 030°11'0 0.0
2018-Jul-11 00:13N 59°57' E 030°11'0 0.0
2018-Jul-10 23:59N 59°57' E 030°11'0 0.0
2018-Jul-10 23:06N 59°57' E 030°11'0 0.0
2018-Jul-10 22:43N 59°57' E 030°11'0 0.0
2018-Jul-10 22:23N 59°57' E 030°11'0 0.0
2018-Jul-10 21:51N 59°57' E 030°11'0 0.0
2018-Jul-10 21:26N 59°57' E 030°11'0 0.0
2018-Jul-10 18:49N 59°57' E 030°11'0 0.0
2018-Jul-10 17:17N 59°57' E 030°11'0 0.0
2018-Jul-10 16:57N 59°57' E 030°11'0 0.0
2018-Jul-10 15:25N 59°57' E 030°11'0 0.0
2018-Jul-10 14:56N 59°57' E 030°11'0 0.0
2018-Jul-10 14:12N 59°57' E 030°11'0 0.0
2018-Jul-10 13:50N 59°57' E 030°11'0 0.0
2018-Jul-10 13:24N 59°57' E 030°11'0 0.0
2018-Jul-10 12:57N 59°57' E 030°11'0 0.0
2018-Jul-10 12:22N 59°57' E 030°11'0 0.0
2018-Jul-10 11:18N 59°57' E 030°11'0 0.0
2018-Jul-10 10:56N 59°57' E 030°11'0 0.0
2018-Jul-10 10:29N 59°57' E 030°11'0 0.0
2018-Jul-10 09:58N 59°57' E 030°11'0 0.0
2018-Jul-10 09:02N 59°57' E 030°11'0 0.0
2018-Jul-10 08:49N 59°57' E 030°11'0 0.0
2018-Jul-10 08:25N 59°57' E 030°11'0 0.0
2018-Jul-10 07:58N 59°57' E 030°11'0 0.0
2018-Jul-10 07:29N 59°57' E 030°11'0 0.0
2018-Jul-10 06:59N 59°57' E 030°11'0 0.0
2018-Jul-10 05:52N 59°57' E 030°11'0 0.0
2018-Jul-10 05:27N 59°57' E 030°11'0 0.0
2018-Jul-10 04:53N 59°57' E 030°11'0 0.0
2018-Jul-10 04:27N 59°57' E 030°11'0 0.0
2018-Jul-10 03:57N 59°57' E 030°11'0 0.0
2018-Jul-10 03:30N 59°57' E 030°11'0 0.0
2018-Jul-10 03:00N 59°57' E 030°11'1 1.7
2018-Jul-10 02:30N 59°57' E 030°09'4 7.7
2018-Jul-10 01:57N 59°56' E 030°02'5 9.9
2018-Jul-10 01:29N 59°57' E 029°52'5 9.6
2018-Jul-10 00:58N 59°59' E 029°44'810.8
2018-Jul-10 00:14N 60°01' E 029°29'2 9.5
2018-Jul-10 00:00N 60°02' E 029°24'714.7
2018-Jul-09 23:30N 60°02' E 029°09'816.2
2018-Jul-09 23:00N 60°02' E 028°53'816.3
2018-Jul-09 22:30N 60°02' E 028°37'816.3
2018-Jul-09 22:00N 60°05' E 028°21'816.6
2018-Jul-09 21:30N 60°08' E 028°06'817.0
2018-Jul-09 21:01N 60°11' E 027°50'816.7
2018-Jul-09 20:30N 60°07' E 027°35'816.5
2018-Jul-09 20:01N 60°03' E 027°21'3189.2
2018-Jul-09 20:00N 60°00' E 027°18'612.5 340 / 131017.110.8 14.813.714.1
2018-Jul-09 19:31N 59°58' E 027°06'916.8
2018-Jul-09 18:57N 59°59' E 026°48'816.9
2018-Jul-09 18:30N 59°58' E 026°33'1119.7
2018-Jul-09 17:57N 59°55' E 026°12'614.0
2018-Jul-09 17:30N 59°53' E 025°60'917.1
2018-Jul-09 17:00N 59°51' E 025°43'817.0
2018-Jul-09 16:31N 59°48' E 025°27'817.0
2018-Jul-09 16:01N 59°46' E 025°11'816.9
2018-Jul-09 15:30N 59°43' E 024°55'816.1
2018-Jul-09 15:00N 59°38' E 024°43'814.1
2018-Jul-09 14:27N 59°31' E 024°45'3 7.7
2018-Jul-09 14:00N 59°27' E 024°46'0 0.5
2018-Jul-09 13:30N 59°27' E 024°46'0 0.0
2018-Jul-09 12:55N 59°27' E 024°46'0 0.0
2018-Jul-09 12:28N 59°27' E 024°46'0 0.0
2018-Jul-09 11:59N 59°27' E 024°46'0 0.0
2018-Jul-09 11:30N 59°27' E 024°46'0 0.0
2018-Jul-09 10:59N 59°27' E 024°46'0 0.0
2018-Jul-09 10:28N 59°27' E 024°46'0 0.0
2018-Jul-09 10:00N 59°27' E 024°46'0 0.0
2018-Jul-09 09:29N 59°27' E 024°46'0 0.0
2018-Jul-09 08:58N 59°27' E 024°46'0 0.0
2018-Jul-09 08:30N 59°27' E 024°46'0 0.0
2018-Jul-09 08:00N 59°27' E 024°46'0 0.0
2018-Jul-09 07:29N 59°27' E 024°46'0 0.0
2018-Jul-09 06:50N 59°27' E 024°46'0 0.0
2018-Jul-09 06:26N 59°27' E 024°46'0 0.0
2018-Jul-09 05:59N 59°27' E 024°46'0 0.0
2018-Jul-09 05:29N 59°27' E 024°46'0 0.0
2018-Jul-09 05:00N 59°27' E 024°46'0 0.0
2018-Jul-09 04:30N 59°27' E 024°46'3 5.9
2018-Jul-09 03:59N 59°30' E 024°45'816.6
2018-Jul-09 03:29N 59°37' E 024°37'613.2
2018-Jul-09 03:00N 59°39' E 024°25'918.9
2018-Jul-09 02:30N 59°38' E 024°07'1120.7
2018-Jul-09 01:59N 59°35' E 023°46'1021.0
2018-Jul-09 01:30N 59°33' E 023°27'1121.2
2018-Jul-09 01:00N 59°30' E 023°06'1120.9
2018-Jul-09 00:30N 59°28' E 022°46'917.7
2018-Jul-09 00:00N 59°24' E 022°30'1822.2 340 / 151012.410.8 14.012.213.6
2018-Jul-08 23:11N 59°13' E 022°03'420.2
2018-Jul-08 23:00N 59°11' E 021°57'917.3
2018-Jul-08 22:28N 59°05' E 021°43'816.6
2018-Jul-08 22:00N 58°59' E 021°34'3517.5
2018-Jul-08 20:00N 58°30' E 020°54'13616.5 300 / 201015.310.8 14.7 9.314.2
2018-Jul-08 11:45N 56°43' E 018°18'416.7
2018-Jul-08 11:30N 56°40' E 018°12'816.7
2018-Jul-08 11:00N 56°35' E 018°00'816.7
2018-Jul-08 10:30N 56°30' E 017°49'816.9
2018-Jul-08 10:00N 56°24' E 017°37'816.8
2018-Jul-08 09:30N 56°19' E 017°25'916.7
2018-Jul-08 09:00N 56°14' E 017°13'816.9
2018-Jul-08 08:30N 56°09' E 017°02'816.7
2018-Jul-08 08:00N 56°04' E 016°49'4266.4
2018-Jul-08 08:00N 56°00' E 016°48'713.5 050 / 131019.610.8 18.015.517.7
2018-Jul-08 07:30N 55°59' E 016°36'816.9
2018-Jul-08 07:00N 55°55' E 016°24'816.7
2018-Jul-08 06:31N 55°50' E 016°11'816.6
2018-Jul-08 06:00N 55°46' E 015°59'816.9
2018-Jul-08 05:30N 55°42' E 015°46'917.4
2018-Jul-08 05:00N 55°38' E 015°32'917.3
2018-Jul-08 04:30N 55°35' E 015°17'917.1
2018-Jul-08 04:01N 55°32' E 015°04'916.9
2018-Jul-08 03:30N 55°27' E 014°51'816.7
2018-Jul-08 03:00N 55°22' E 014°39'816.8
2018-Jul-08 02:30N 55°16' E 014°30'816.5
2018-Jul-08 02:00N 55°09' E 014°20'816.4
2018-Jul-08 01:30N 55°03' E 014°11'1631.2
2018-Jul-08 01:00N 54°54' E 013°48'4113.8 050 / 161016.110.8 18.015.517.7
2018-Jul-07 22:00N 54°43' E 012°39'816.2
2018-Jul-07 21:30N 54°39' E 012°27'815.4
2018-Jul-07 21:00N 54°33' E 012°18'815.3
2018-Jul-07 20:30N 54°26' E 012°12'815.3
2018-Jul-07 20:00N 54°19' E 012°06'713.4
2018-Jul-07 19:30N 54°13' E 012°04'2 4.6
2018-Jul-07 18:59N 54°10' E 012°06'0 0.0
2018-Jul-07 18:23N 54°10' E 012°06'0 0.0
2018-Jul-07 17:59N 54°10' E 012°06'0 0.0
2018-Jul-07 17:29N 54°10' E 012°06'0 0.0
2018-Jul-07 16:56N 54°10' E 012°06'0 0.0
2018-Jul-07 16:26N 54°10' E 012°06'0 0.0
2018-Jul-07 15:59N 54°10' E 012°06'0 0.0
2018-Jul-07 15:21N 54°10' E 012°06'0 0.0
2018-Jul-07 14:15N 54°10' E 012°06'0 0.0
2018-Jul-07 13:54N 54°10' E 012°06'0 0.0
2018-Jul-07 12:33N 54°10' E 012°06'0 0.0
2018-Jul-07 06:51N 54°10' E 012°06'0 0.0
2018-Jul-07 06:12N 54°10' E 012°06'0 0.0
2018-Jul-07 05:57N 54°10' E 012°06'  
Track history (hours):
 
Tides and Currents Weather Stations Pressure Air Temp Water Temp Dewpoint Dewpoint Depression Visibility Wind Speed Wind Dir Waves Ship Positions

Regal Princess

Last reported at 2018-Jul-17 05:31 UTC. Time now 2018-Jul-17 05:38 UTC.
Position N 58°07' E 010°51'.

Length 330 m; draft 8.7 m.

Type: Passenger vessel. MMSI: 310674000.

Date/timePositionNaut miles runAvg speedWind from/ knotsBaromVisibWave heightAir tempDewpointWater temp
2018-Jul-17 05:31N 58°07' E 010°51'612.9
2018-Jul-17 05:01N 58°14' E 010°47'612.8
2018-Jul-17 04:30N 58°20' E 010°43'612.8
2018-Jul-17 04:01N 58°26' E 010°39'2128.5
2018-Jul-17 04:00N 58°24' E 010°36'815.7 040 / 141013.910.8 20.017.618.3
2018-Jul-17 03:31N 58°32' E 010°34'612.8
2018-Jul-17 03:01N 58°38' E 010°34'612.7
2018-Jul-17 02:31N 58°44' E 010°34'612.7
2018-Jul-17 02:01N 58°51' E 010°34'612.7
2018-Jul-17 01:31N 58°57' E 010°34'612.8
2018-Jul-17 01:01N 59°03' E 010°36'510.3
2018-Jul-17 00:30N 59°08' E 010°38'1716.8
2018-Jul-16 23:30N 59°25' E 010°33'816.8
2018-Jul-16 23:00N 59°33' E 010°37'714.7
2018-Jul-16 22:30N 59°41' E 010°37'611.5
2018-Jul-16 22:00N 59°46' E 010°34'815.5
2018-Jul-16 21:30N 59°53' E 010°40'2 4.7
2018-Jul-16 21:00N 59°54' E 010°44'0 0.0
2018-Jul-16 20:30N 59°54' E 010°44'0 0.0
2018-Jul-16 20:00N 59°54' E 010°44'0 0.0
2018-Jul-16 19:30N 59°54' E 010°44'0 0.0
2018-Jul-16 18:59N 59°54' E 010°44'0 0.0
2018-Jul-16 18:29N 59°54' E 010°44'0 0.0
2018-Jul-16 17:59N 59°54' E 010°44'0 0.0
2018-Jul-16 17:29N 59°54' E 010°44'0 0.0
2018-Jul-16 16:59N 59°54' E 010°44'0 0.0
2018-Jul-16 16:29N 59°54' E 010°44'0 0.0
2018-Jul-16 15:59N 59°54' E 010°44'0 0.0
2018-Jul-16 15:29N 59°54' E 010°44'0 0.0
2018-Jul-16 14:59N 59°54' E 010°44'0 0.0
2018-Jul-16 14:29N 59°54' E 010°44'0 0.0
2018-Jul-16 13:59N 59°54' E 010°44'0 0.0
2018-Jul-16 13:29N 59°54' E 010°44'0 0.0
2018-Jul-16 12:59N 59°54' E 010°44'0 0.0
2018-Jul-16 12:29N 59°54' E 010°44'0 0.0
2018-Jul-16 11:59N 59°54' E 010°44'0 0.0
2018-Jul-16 11:29N 59°54' E 010°44'0 0.0
2018-Jul-16 10:59N 59°54' E 010°44'0 0.0
2018-Jul-16 10:31N 59°54' E 010°44'0 0.0
2018-Jul-16 09:59N 59°54' E 010°44'0 0.0
2018-Jul-16 09:28N 59°54' E 010°44'0 0.0
2018-Jul-16 08:58N 59°54' E 010°44'0 0.0
2018-Jul-16 08:28N 59°54' E 010°44'0 0.0
2018-Jul-16 07:58N 59°54' E 010°44'0 0.0
2018-Jul-16 07:28N 59°54' E 010°44'2 3.5
2018-Jul-16 07:00N 59°54' E 010°41'612.4
2018-Jul-16 06:30N 59°48' E 010°35'611.9
2018-Jul-16 06:00N 59°42' E 010°36'611.5
2018-Jul-16 05:31N 59°37' E 010°38'918.1
2018-Jul-16 05:01N 59°28' E 010°34'918.2
2018-Jul-16 04:31N 59°19' E 010°36'918.6
2018-Jul-16 04:01N 59°10' E 010°39'713.7
2018-Jul-16 03:30N 59°03' E 010°34'815.0
2018-Jul-16 03:00N 58°56' E 010°34'917.9
2018-Jul-16 02:30N 58°47' E 010°35'918.1
2018-Jul-16 02:00N 58°38' E 010°35'917.6
2018-Jul-16 01:30N 58°29' E 010°37'917.8
2018-Jul-16 01:00N 58°21' E 010°41'918.7
2018-Jul-16 00:30N 58°12' E 010°46'1121.4
2018-Jul-16 00:00N 58°02' E 010°54'1121.2
2018-Jul-15 23:30N 57°52' E 011°01'1020.9
2018-Jul-15 23:00N 57°42' E 011°07'1020.6
2018-Jul-15 22:30N 57°34' E 011°18'1020.7
2018-Jul-15 22:00N 57°25' E 011°28'1020.6
2018-Jul-15 21:30N 57°15' E 011°35'1020.3
2018-Jul-15 21:00N 57°05' E 011°42'1020.3
2018-Jul-15 20:30N 56°56' E 011°48'815.6
2018-Jul-15 20:00N 56°48' E 011°48'939.6 310 / 91016.710.8 18.314.319.6
2018-Jul-15 19:46N 56°44' E 012°02'519.5
2018-Jul-15 19:30N 56°40' E 012°09'1019.1
2018-Jul-15 19:00N 56°32' E 012°17'1019.5
2018-Jul-15 18:28N 56°22' E 012°21'919.1
2018-Jul-15 18:00N 56°13' E 012°26'1019.2
2018-Jul-15 17:30N 56°05' E 012°36'816.7
2018-Jul-15 17:00N 55°58' E 012°42'917.1
2018-Jul-15 16:30N 55°49' E 012°44'713.1
2018-Jul-15 16:00N 55°43' E 012°39'1 2.0
2018-Jul-15 15:28N 55°43' E 012°37'0 0.0
2018-Jul-15 14:58N 55°43' E 012°37'0 0.0
2018-Jul-15 14:28N 55°43' E 012°37'0 0.0
2018-Jul-15 13:58N 55°43' E 012°37'0 0.0
2018-Jul-15 13:28N 55°43' E 012°37'0 0.0
2018-Jul-15 12:58N 55°43' E 012°37'0 0.0
2018-Jul-15 12:28N 55°43' E 012°37'0 0.0
2018-Jul-15 11:58N 55°43' E 012°37'0 0.0
2018-Jul-15 11:28N 55°43' E 012°37'0 0.0
2018-Jul-15 10:58N 55°43' E 012°37'0 0.0
2018-Jul-15 10:30N 55°43' E 012°37'0 0.0
2018-Jul-15 09:59N 55°43' E 012°37'0 0.0
2018-Jul-15 09:29N 55°43' E 012°37'0 0.0
2018-Jul-15 08:59N 55°43' E 012°37'0 0.0
2018-Jul-15 08:28N 55°43' E 012°37'0 0.0
2018-Jul-15 07:58N 55°43' E 012°37'0 0.0
2018-Jul-15 07:30N 55°43' E 012°37'0 0.0
2018-Jul-15 06:59N 55°43' E 012°37'0 0.0
2018-Jul-15 06:28N 55°43' E 012°37'0 0.0
2018-Jul-15 05:58N 55°43' E 012°37'0 0.0
2018-Jul-15 05:28N 55°43' E 012°37'0 0.0
2018-Jul-15 04:58N 55°43' E 012°37'0 0.0
2018-Jul-15 04:30N 55°43' E 012°37'0 0.0
2018-Jul-15 03:59N 55°43' E 012°37'0 0.0
2018-Jul-15 03:29N 55°43' E 012°37'0 0.1
2018-Jul-15 03:00N 55°43' E 012°37'1 1.3
2018-Jul-15 02:30N 55°43' E 012°38'612.3
2018-Jul-15 02:00N 55°49' E 012°43'816.7
2018-Jul-15 01:30N 55°57' E 012°42'816.4
2018-Jul-15 01:00N 56°04' E 012°37'1020.1
2018-Jul-15 00:30N 56°10' E 012°22'918.8
2018-Jul-15 00:00N 56°11' E 012°05'1019.9
2018-Jul-14 23:30N 56°08' E 011°48'1919.6
2018-Jul-14 22:32N 56°07' E 011°14'019.5
2018-Jul-14 22:30N 56°07' E 011°13'4117.3
2018-Jul-14 20:09N 55°28' E 010°57'319.1
2018-Jul-14 20:00N 55°25' E 010°60'917.2
2018-Jul-14 19:30N 55°17' E 011°04'917.3
2018-Jul-14 19:00N 55°08' E 011°03'918.9
2018-Jul-14 18:30N 54°59' E 011°01'815.2
2018-Jul-14 18:01N 54°53' E 010°53'815.0
2018-Jul-14 17:31N 54°45' E 010°53'713.9
2018-Jul-14 17:00N 54°40' E 010°60'816.9
2018-Jul-14 16:30N 54°36' E 011°13'1019.4
2018-Jul-14 16:00N 54°31' E 011°27'919.1
2018-Jul-14 15:30N 54°27' E 011°42'1018.6
2018-Jul-14 15:00N 54°26' E 011°59'1616.4
2018-Jul-14 14:01N 54°37' E 012°19'918.8
2018-Jul-14 13:30N 54°42' E 012°32'1819.0
2018-Jul-14 12:35N 54°51' E 012°59'319.9
2018-Jul-14 12:26N 54°52' E 013°04'820.0
2018-Jul-14 12:00N 54°55' E 013°18'2519.7
2018-Jul-14 10:44N 55°03' E 013°59'519.5
2018-Jul-14 10:30N 55°05' E 014°06'1020.5
2018-Jul-14 09:59N 55°14' E 014°17'1020.4
2018-Jul-14 09:30N 55°21' E 014°28'1020.6
2018-Jul-14 09:00N 55°28' E 014°42'1020.8
2018-Jul-14 08:31N 55°32' E 014°59'1020.4
2018-Jul-14 08:00N 55°37' E 015°14'1020.4
2018-Jul-14 07:30N 55°42' E 015°30'1020.5
2018-Jul-14 07:00N 55°48' E 015°45'1020.6
2018-Jul-14 06:30N 55°53' E 016°01'1020.7
2018-Jul-14 06:00N 55°58' E 016°17'1020.6
2018-Jul-14 05:30N 56°03' E 016°33'1020.5
2018-Jul-14 05:00N 56°10' E 016°47'1021.0
2018-Jul-14 04:30N 56°20' E 016°54'1121.1
2018-Jul-14 04:00N 56°29' E 017°02'1021.1
2018-Jul-14 03:30N 56°39' E 017°08'1121.4
2018-Jul-14 03:00N 56°50' E 017°13'1521.3
2018-Jul-14 02:19N 57°04' E 017°22'921.3
2018-Jul-14 01:54N 57°12' E 017°28'1820.4
2018-Jul-14 01:00N 57°30' E 017°36'723.2 330 / 71013.710.8 18.615.917.1
2018-Jul-14 00:41N 57°37' E 017°42'421.3
2018-Jul-14 00:29N 57°41' E 017°43'2120.9
2018-Jul-13 23:27N 57°59' E 018°05'1621.5
2018-Jul-13 22:42N 58°12' E 018°22'621.2
2018-Jul-13 22:27N 58°17' E 018°28'1521.3
2018-Jul-13 21:44N 58°29' E 018°44'621.2
2018-Jul-13 21:27N 58°34' E 018°51'921.1
2018-Jul-13 21:00N 58°42' E 019°02'1716.8
2018-Jul-13 20:00N 58°54' E 019°24'4023.0 360 / 81014.710.8 18.016.314.8
2018-Jul-13 18:15N 59°30' E 019°57'719.7
2018-Jul-13 17:52N 59°38' E 019°55'720.5
2018-Jul-13 17:30N 59°43' E 019°45'1019.2
2018-Jul-13 17:00N 59°47' E 019°28'815.8
2018-Jul-13 16:30N 59°44' E 019°13'917.2
2018-Jul-13 16:00N 59°40' E 018°58'5 9.8
2018-Jul-13 15:30N 59°37' E 018°50'612.1
2018-Jul-13 15:00N 59°34' E 018°40'9 9.2
2018-Jul-13 14:00N 59°28' E 018°26'4 8.3
2018-Jul-13 13:31N 59°24' E 018°26'2 4.8
2018-Jul-13 13:00N 59°22' E 018°23'510.2
2018-Jul-13 12:30N 59°21' E 018°14'3 5.8
2018-Jul-13 12:00N 59°21' E 018°08'0 0.0
2018-Jul-13 11:26N 59°21' E 018°08'0 0.0
2018-Jul-13 10:52N 59°21' E 018°08'0 0.0
2018-Jul-13 10:24N 59°21' E 018°08'0 0.0
2018-Jul-13 09:59N 59°21' E 018°08'0 0.0
2018-Jul-13 09:30N 59°21' E 018°08'0 0.0
2018-Jul-13 09:00N 59°21' E 018°08'0 0.0
2018-Jul-13 08:30N 59°21' E 018°08'0 0.0
2018-Jul-13 07:59N 59°21' E 018°08'0 0.0
2018-Jul-13 07:29N 59°21' E 018°08'0 0.0
2018-Jul-13 06:59N 59°21' E 018°08'0 0.0
2018-Jul-13 06:29N 59°21' E 018°08'0 0.0
2018-Jul-13 05:59N 59°21' E 018°08'0 0.0
2018-Jul-13 05:30N 59°21' E 018°08'0 0.2
2018-Jul-13 05:00N 59°21' E 018°08'2 4.6
2018-Jul-13 04:30N 59°20' E 018°12'611.1
2018-Jul-13 04:00N 59°22' E 018°23'3 5.0
2018-Jul-13 03:30N 59°24' E 018°26'4 8.7
2018-Jul-13 03:00N 59°28' E 018°26'510.5
2018-Jul-13 02:30N 59°32' E 018°34'510.5
2018-Jul-13 02:00N 59°35' E 018°43'612.0
2018-Jul-13 01:30N 59°38' E 018°52'6213.0
2018-Jul-12 20:44N 59°25' E 020°51'520.9
2018-Jul-12 20:30N 59°25' E 021°01'1020.7
2018-Jul-12 20:00N 59°25' E 021°21'2243.4
2018-Jul-12 20:00N 59°24' E 021°18'1224.6 170 / 81016.710.8 18.016.314.8
2018-Jul-12 19:30N 59°26' E 021°41'1020.8
2018-Jul-12 19:00N 59°26' E 022°02'1220.2
2018-Jul-12 18:26N 59°28' E 022°24'920.3
2018-Jul-12 18:00N 59°32' E 022°39'1020.9
2018-Jul-12 17:30N 59°34' E 022°60'1020.6
2018-Jul-12 17:00N 59°37' E 023°19'1121.0
2018-Jul-12 16:30N 59°41' E 023°39'1021.0
2018-Jul-12 16:00N 59°43' E 023°58'1121.1
2018-Jul-12 15:30N 59°46' E 024°19'1020.8
2018-Jul-12 15:00N 59°50' E 024°38'1020.7
2018-Jul-12 14:30N 59°56' E 024°55'815.3
2018-Jul-12 14:00N 60°03' E 024°54'611.6
2018-Jul-12 13:30N 60°09' E 024°55'0 0.2
2018-Jul-12 12:59N 60°09' E 024°55'0 0.0
2018-Jul-12 12:29N 60°09' E 024°55'0 0.0
2018-Jul-12 11:58N 60°09' E 024°55'0 0.0
2018-Jul-12 11:28N 60°09' E 024°55'0 0.0
2018-Jul-12 11:00N 60°09' E 024°55'0 0.0
2018-Jul-12 10:30N 60°09' E 024°55'0 0.0
2018-Jul-12 10:01N 60°09' E 024°55'0 0.0
2018-Jul-12 09:29N 60°09' E 024°55'0 0.0
2018-Jul-12 08:59N 60°09' E 024°55'0 0.0
2018-Jul-12 08:29N 60°09' E 024°55'0 0.0
2018-Jul-12 07:58N 60°09' E 024°55'0 0.0
2018-Jul-12 07:30N 60°09' E 024°55'0 0.0
2018-Jul-12 06:58N 60°09' E 024°55'0 0.0
2018-Jul-12 06:28N 60°09' E 024°55'0 0.0
2018-Jul-12 06:00N 60°09' E 024°55'0 0.0
2018-Jul-12 05:29N 60°09' E 024°55'0 0.0
2018-Jul-12 04:58N 60°09' E 024°55'0 0.0
2018-Jul-12 04:30N 60°09' E 024°55'0 0.0
2018-Jul-12 04:00N 60°09' E 024°55'0 0.1
2018-Jul-12 03:30N 60°09' E 024°55'2 4.2
2018-Jul-12 03:00N 60°07' E 024°54'714.0
2018-Jul-12 02:30N 60°00' E 024°57'612.8
2018-Jul-12 02:00N 59°57' E 025°09'714.4
2018-Jul-12 01:30N 59°56' E 025°23'714.5
2018-Jul-12 01:00N 59°54' E 025°37'816.6
2018-Jul-12 00:30N 59°56' E 025°53'816.8
2018-Jul-12 00:00N 59°58' E 026°09'916.8
2018-Jul-11 23:29N 60°00' E 026°26'816.4
2018-Jul-11 23:00N 60°01' E 026°42'917.2
2018-Jul-11 22:30N 59°60' E 026°59'816.5
2018-Jul-11 22:00N 60°03' E 027°14'815.8
2018-Jul-11 21:30N 60°07' E 027°28'917.3
2018-Jul-11 21:00N 60°12' E 027°43'815.5
2018-Jul-11 20:30N 60°11' E 027°58'816.5
2018-Jul-11 20:00N 60°08' E 028°14'3191.2
2018-Jul-11 20:00N 60°06' E 028°18'510.8 340 / 101018.910.8 19.012.415.2
2018-Jul-11 19:30N 60°04' E 028°28'916.3
2018-Jul-11 18:58N 60°03' E 028°45'716.1
2018-Jul-11 18:30N 60°02' E 029°00'816.1
2018-Jul-11 18:00N 60°02' E 029°16'1012.8
2018-Jul-11 17:14N 60°00' E 029°36'411.9
2018-Jul-11 16:52N 59°59' E 029°44'3 9.4
2018-Jul-11 16:30N 59°57' E 029°50'510.8
2018-Jul-11 16:00N 59°55' E 030°00'5 9.6
2018-Jul-11 15:30N 59°57' E 030°09'1 1.2
2018-Jul-11 14:37N 59°57' E 030°11'0 0.0
2018-Jul-11 14:21N 59°57' E 030°11'0 0.0
2018-Jul-11 13:51N 59°57' E 030°11'0 0.0
2018-Jul-11 13:27N 59°57' E 030°11'0 0.0
2018-Jul-11 12:49N 59°57' E 030°11'0 0.0
2018-Jul-11 12:30N 59°57' E 030°11'0 0.0
2018-Jul-11 12:00N 59°57' E 030°11'0 0.0
2018-Jul-11 11:30N 59°57' E 030°11'0 0.0
2018-Jul-11 10:59N 59°57' E 030°11'0 0.0
2018-Jul-11 10:19N 59°57' E 030°11'0 0.0
2018-Jul-11 09:33N 59°57' E 030°11'0 0.0
2018-Jul-11 09:15N 59°57' E 030°11'0 0.0
2018-Jul-11 08:30N 59°57' E 030°11'0 0.0
2018-Jul-11 07:55N 59°57' E 030°11'0 0.0
2018-Jul-11 06:50N 59°57' E 030°11'0 0.0
2018-Jul-11 04:38N 59°57' E 030°11'0 0.0
2018-Jul-11 04:27N 59°57' E 030°11'0 0.0
2018-Jul-11 03:54N 59°57' E 030°11'0 0.0
2018-Jul-11 03:30N 59°57' E 030°11'0 0.0
2018-Jul-11 02:58N 59°57' E 030°11'0 0.0
2018-Jul-11 02:29N 59°57' E 030°11'0 0.0
2018-Jul-11 02:00N 59°57' E 030°11'0 0.0
2018-Jul-11 01:29N 59°57' E 030°11'0 0.0
2018-Jul-11 00:53N 59°57' E 030°11'0 0.0
2018-Jul-11 00:13N 59°57' E 030°11'0 0.0
2018-Jul-10 23:59N 59°57' E 030°11'0 0.0
2018-Jul-10 23:06N 59°57' E 030°11'0 0.0
2018-Jul-10 22:43N 59°57' E 030°11'0 0.0
2018-Jul-10 22:23N 59°57' E 030°11'0 0.0
2018-Jul-10 21:51N 59°57' E 030°11'0 0.0
2018-Jul-10 21:26N 59°57' E 030°11'0 0.0
2018-Jul-10 18:49N 59°57' E 030°11'0 0.0
2018-Jul-10 17:17N 59°57' E 030°11'0 0.0
2018-Jul-10 16:57N 59°57' E 030°11'0 0.0
2018-Jul-10 15:25N 59°57' E 030°11'0 0.0
2018-Jul-10 14:56N 59°57' E 030°11'0 0.0
2018-Jul-10 14:12N 59°57' E 030°11'0 0.0
2018-Jul-10 13:50N 59°57' E 030°11'0 0.0
2018-Jul-10 13:24N 59°57' E 030°11'0 0.0
2018-Jul-10 12:57N 59°57' E 030°11'0 0.0
2018-Jul-10 12:22N 59°57' E 030°11'0 0.0
2018-Jul-10 11:18N 59°57' E 030°11'0 0.0
2018-Jul-10 10:56N 59°57' E 030°11'0 0.0
2018-Jul-10 10:29N 59°57' E 030°11'0 0.0
2018-Jul-10 09:58N 59°57' E 030°11'0 0.0
2018-Jul-10 09:02N 59°57' E 030°11'0 0.0
2018-Jul-10 08:49N 59°57' E 030°11'0 0.0
2018-Jul-10 08:25N 59°57' E 030°11'0 0.0
2018-Jul-10 07:58N 59°57' E 030°11'0 0.0
2018-Jul-10 07:29N 59°57' E 030°11'0 0.0
2018-Jul-10 06:59N 59°57' E 030°11'0 0.0
2018-Jul-10 05:52N 59°57' E 030°11'0 0.0
2018-Jul-10 05:27N 59°57' E 030°11'0 0.0
2018-Jul-10 04:53N 59°57' E 030°11'0 0.0
2018-Jul-10 04:27N 59°57' E 030°11'0 0.0
2018-Jul-10 03:57N 59°57' E 030°11'0 0.0
2018-Jul-10 03:30N 59°57' E 030°11'0 0.0
2018-Jul-10 03:00N 59°57' E 030°11'1 1.7
2018-Jul-10 02:30N 59°57' E 030°09'4 7.7
2018-Jul-10 01:57N 59°56' E 030°02'5 9.9
2018-Jul-10 01:29N 59°57' E 029°52'5 9.6
2018-Jul-10 00:58N 59°59' E 029°44'810.8
2018-Jul-10 00:14N 60°01' E 029°29'2 9.5
2018-Jul-10 00:00N 60°02' E 029°24'714.7
2018-Jul-09 23:30N 60°02' E 029°09'816.2
2018-Jul-09 23:00N 60°02' E 028°53'816.3
2018-Jul-09 22:30N 60°02' E 028°37'816.3
2018-Jul-09 22:00N 60°05' E 028°21'816.6
2018-Jul-09 21:30N 60°08' E 028°06'817.0
2018-Jul-09 21:01N 60°11' E 027°50'816.7
2018-Jul-09 20:30N 60°07' E 027°35'816.5
2018-Jul-09 20:01N 60°03' E 027°21'3189.2
2018-Jul-09 20:00N 60°00' E 027°18'612.5 340 / 131017.110.8 14.813.714.1
2018-Jul-09 19:31N 59°58' E 027°06'916.8
2018-Jul-09 18:57N 59°59' E 026°48'816.9
2018-Jul-09 18:30N 59°58' E 026°33'1119.7
2018-Jul-09 17:57N 59°55' E 026°12'614.0
2018-Jul-09 17:30N 59°53' E 025°60'917.1
2018-Jul-09 17:00N 59°51' E 025°43'817.0
2018-Jul-09 16:31N 59°48' E 025°27'817.0
2018-Jul-09 16:01N 59°46' E 025°11'816.9
2018-Jul-09 15:30N 59°43' E 024°55'816.1
2018-Jul-09 15:00N 59°38' E 024°43'814.1
2018-Jul-09 14:27N 59°31' E 024°45'3 7.7
2018-Jul-09 14:00N 59°27' E 024°46'0 0.5
2018-Jul-09 13:30N 59°27' E 024°46'0 0.0
2018-Jul-09 12:55N 59°27' E 024°46'0 0.0
2018-Jul-09 12:28N 59°27' E 024°46'0 0.0
2018-Jul-09 11:59N 59°27' E 024°46'0 0.0
2018-Jul-09 11:30N 59°27' E 024°46'0 0.0
2018-Jul-09 10:59N 59°27' E 024°46'0 0.0
2018-Jul-09 10:28N 59°27' E 024°46'0 0.0
2018-Jul-09 10:00N 59°27' E 024°46'0 0.0
2018-Jul-09 09:29N 59°27' E 024°46'0 0.0
2018-Jul-09 08:58N 59°27' E 024°46'0 0.0
2018-Jul-09 08:30N 59°27' E 024°46'0 0.0
2018-Jul-09 08:00N 59°27' E 024°46'0 0.0
2018-Jul-09 07:29N 59°27' E 024°46'0 0.0
2018-Jul-09 06:50N 59°27' E 024°46'0 0.0
2018-Jul-09 06:26N 59°27' E 024°46'0 0.0
2018-Jul-09 05:59N 59°27' E 024°46'0 0.0
2018-Jul-09 05:29N 59°27' E 024°46'0 0.0
2018-Jul-09 05:00N 59°27' E 024°46'0 0.0
2018-Jul-09 04:30N 59°27' E 024°46'3 5.9
2018-Jul-09 03:59N 59°30' E 024°45'816.6
2018-Jul-09 03:29N 59°37' E 024°37'613.2
2018-Jul-09 03:00N 59°39' E 024°25'918.9
2018-Jul-09 02:30N 59°38' E 024°07'1120.7
2018-Jul-09 01:59N 59°35' E 023°46'1021.0
2018-Jul-09 01:30N 59°33' E 023°27'1121.2
2018-Jul-09 01:00N 59°30' E 023°06'1120.9
2018-Jul-09 00:30N 59°28' E 022°46'917.7
2018-Jul-09 00:00N 59°24' E 022°30'1822.2 340 / 151012.410.8 14.012.213.6
2018-Jul-08 23:11N 59°13' E 022°03'420.2
2018-Jul-08 23:00N 59°11' E 021°57'917.3
2018-Jul-08 22:28N 59°05' E 021°43'816.6
2018-Jul-08 22:00N 58°59' E 021°34'3517.5
2018-Jul-08 20:00N 58°30' E 020°54'13616.5 300 / 201015.310.8 14.7 9.314.2
2018-Jul-08 11:45N 56°43' E 018°18'416.7
2018-Jul-08 11:30N 56°40' E 018°12'816.7
2018-Jul-08 11:00N 56°35' E 018°00'816.7
2018-Jul-08 10:30N 56°30' E 017°49'816.9
2018-Jul-08 10:00N 56°24' E 017°37'816.8
2018-Jul-08 09:30N 56°19' E 017°25'916.7
2018-Jul-08 09:00N 56°14' E 017°13'816.9
2018-Jul-08 08:30N 56°09' E 017°02'816.7
2018-Jul-08 08:00N 56°04' E 016°49'4266.4
2018-Jul-08 08:00N 56°00' E 016°48'713.5 050 / 131019.610.8 18.015.517.7
2018-Jul-08 07:30N 55°59' E 016°36'816.9
2018-Jul-08 07:00N 55°55' E 016°24'816.7
2018-Jul-08 06:31N 55°50' E 016°11'816.6
2018-Jul-08 06:00N 55°46' E 015°59'816.9
2018-Jul-08 05:30N 55°42' E 015°46'917.4
2018-Jul-08 05:00N 55°38' E 015°32'917.3
2018-Jul-08 04:30N 55°35' E 015°17'917.1
2018-Jul-08 04:01N 55°32' E 015°04'916.9
2018-Jul-08 03:30N 55°27' E 014°51'816.7
2018-Jul-08 03:00N 55°22' E 014°39'816.8
2018-Jul-08 02:30N 55°16' E 014°30'816.5
2018-Jul-08 02:00N 55°09' E 014°20'816.4
2018-Jul-08 01:30N 55°03' E 014°11'1631.2
2018-Jul-08 01:00N 54°54' E 013°48'4113.8 050 / 161016.110.8 18.015.517.7
2018-Jul-07 22:00N 54°43' E 012°39'816.2
2018-Jul-07 21:30N 54°39' E 012°27'815.4
2018-Jul-07 21:00N 54°33' E 012°18'815.3
2018-Jul-07 20:30N 54°26' E 012°12'815.3
2018-Jul-07 20:00N 54°19' E 012°06'713.4
2018-Jul-07 19:30N 54°13' E 012°04'2 4.6
2018-Jul-07 18:59N 54°10' E 012°06'0 0.0
2018-Jul-07 18:23N 54°10' E 012°06'0 0.0
2018-Jul-07 17:59N 54°10' E 012°06'0 0.0
2018-Jul-07 17:29N 54°10' E 012°06'0 0.0
2018-Jul-07 16:56N 54°10' E 012°06'0 0.0
2018-Jul-07 16:26N 54°10' E 012°06'0 0.0
2018-Jul-07 15:59N 54°10' E 012°06'0 0.0
2018-Jul-07 15:21N 54°10' E 012°06'0 0.0
2018-Jul-07 14:15N 54°10' E 012°06'0 0.0
2018-Jul-07 13:54N 54°10' E 012°06'0 0.0
2018-Jul-07 12:33N 54°10' E 012°06'0 0.0
2018-Jul-07 06:51N 54°10' E 012°06'0 0.0
2018-Jul-07 06:12N 54°10' E 012°06'0 0.0
2018-Jul-07 05:57N 54°10' E 012°06'  

Dump ship's entire track history